sensor_id;sensor_type;location;lat;lon;timestamp;pressure;altitude;pressure_sealevel;temperature;humidity
62418;BME280;48456;54.242;10.280;2023-07-24T00:00:16;100056.88;;;14.97;100.00
62418;BME280;48456;54.242;10.280;2023-07-24T00:02:42;100063.13;;;14.96;100.00
62418;BME280;48456;54.242;10.280;2023-07-24T00:05:08;100063.09;;;14.98;100.00
62418;BME280;48456;54.242;10.280;2023-07-24T00:07:36;100051.63;;;14.96;100.00
62418;BME280;48456;54.242;10.280;2023-07-24T00:10:03;100064.97;;;14.96;100.00
62418;BME280;48456;54.242;10.280;2023-07-24T00:12:29;100048.97;;;14.96;100.00
62418;BME280;48456;54.242;10.280;2023-07-24T00:14:56;100058.75;;;14.95;100.00
62418;BME280;48456;54.242;10.280;2023-07-24T00:17:22;100049.81;;;14.96;100.00
62418;BME280;48456;54.242;10.280;2023-07-24T00:19:49;100053.31;;;14.98;100.00
62418;BME280;48456;54.242;10.280;2023-07-24T00:22:15;100047.13;;;14.98;100.00
62418;BME280;48456;54.242;10.280;2023-07-24T00:24:41;100047.06;;;14.99;100.00
62418;BME280;48456;54.242;10.280;2023-07-24T00:27:08;100043.41;;;15.02;100.00
62418;BME280;48456;54.242;10.280;2023-07-24T00:29:35;100045.16;;;15.03;100.00
62418;BME280;48456;54.242;10.280;2023-07-24T00:32:01;100039.78;;;15.04;100.00
62418;BME280;48456;54.242;10.280;2023-07-24T00:34:27;100038.94;;;15.04;100.00
62418;BME280;48456;54.242;10.280;2023-07-24T00:36:55;100042.38;;;15.06;100.00
62418;BME280;48456;54.242;10.280;2023-07-24T00:39:21;100037.91;;;15.08;100.00
62418;BME280;48456;54.242;10.280;2023-07-24T00:41:47;100036.09;;;15.09;100.00
62418;BME280;48456;54.242;10.280;2023-07-24T00:44:14;100032.56;;;15.08;100.00
62418;BME280;48456;54.242;10.280;2023-07-24T00:46:40;100025.47;;;15.07;100.00
62418;BME280;48456;54.242;10.280;2023-07-24T00:49:07;100033.38;;;15.10;100.00
62418;BME280;48456;54.242;10.280;2023-07-24T00:51:34;100028.00;;;15.12;100.00
62418;BME280;48456;54.242;10.280;2023-07-24T00:54:01;100031.63;;;15.09;100.00
62418;BME280;48456;54.242;10.280;2023-07-24T00:56:28;100029.91;;;15.08;100.00
62418;BME280;48456;54.242;10.280;2023-07-24T00:58:56;100031.75;;;15.06;100.00
62418;BME280;48456;54.242;10.280;2023-07-24T01:01:23;100031.75;;;15.06;100.00
62418;BME280;48456;54.242;10.280;2023-07-24T01:03:49;100024.72;;;15.03;100.00
62418;BME280;48456;54.242;10.280;2023-07-24T01:06:16;100031.78;;;15.04;100.00
62418;BME280;48456;54.242;10.280;2023-07-24T01:08:42;100026.50;;;15.03;100.00
62418;BME280;48456;54.242;10.280;2023-07-24T01:11:15;100024.81;;;15.00;100.00
62418;BME280;48456;54.242;10.280;2023-07-24T01:13:44;100020.47;;;14.98;100.00
62418;BME280;48456;54.242;10.280;2023-07-24T01:16:14;100024.81;;;15.00;100.00
62418;BME280;48456;54.242;10.280;2023-07-24T01:18:44;100020.38;;;15.01;100.00
62418;BME280;48456;54.242;10.280;2023-07-24T01:21:11;100018.47;;;15.04;100.00
62418;BME280;48456;54.242;10.280;2023-07-24T01:26:23;100016.59;;;15.08;100.00
62418;BME280;48456;54.242;10.280;2023-07-24T01:28:50;100006.84;;;15.07;100.00
62418;BME280;48456;54.242;10.280;2023-07-24T01:31:17;100009.56;;;15.05;100.00
62418;BME280;48456;54.242;10.280;2023-07-24T01:33:43;100009.44;;;15.09;100.00
62418;BME280;48456;54.242;10.280;2023-07-24T01:36:10;100007.66;;;15.09;100.00
62418;BME280;48456;54.242;10.280;2023-07-24T01:38:37;100000.47;;;15.11;100.00
62418;BME280;48456;54.242;10.280;2023-07-24T01:41:04;100006.50;;;15.16;100.00
62418;BME280;48456;54.242;10.280;2023-07-24T01:43:30;100005.66;;;15.16;100.00
62418;BME280;48456;54.242;10.280;2023-07-24T01:45:58;99992.38;;;15.14;100.00
62418;BME280;48456;54.242;10.280;2023-07-24T01:48:24;99996.88;;;15.12;100.00
62418;BME280;48456;54.242;10.280;2023-07-24T01:50:51;99987.94;;;15.15;100.00
62418;BME280;48456;54.242;10.280;2023-07-24T01:53:17;100000.13;;;15.20;100.00
62418;BME280;48456;54.242;10.280;2023-07-24T01:55:44;99992.88;;;15.26;100.00
62418;BME280;48456;54.242;10.280;2023-07-24T01:58:10;99989.06;;;15.31;100.00
62418;BME280;48456;54.242;10.280;2023-07-24T02:00:36;99988.97;;;15.35;100.00
62418;BME280;48456;54.242;10.280;2023-07-24T02:03:03;99992.47;;;15.37;100.00
62418;BME280;48456;54.242;10.280;2023-07-24T02:05:29;99987.13;;;15.37;100.00
62418;BME280;48456;54.242;10.280;2023-07-24T02:07:56;99990.66;;;15.37;100.00
62418;BME280;48456;54.242;10.280;2023-07-24T02:10:23;99996.84;;;15.38;100.00
62418;BME280;48456;54.242;10.280;2023-07-24T02:12:49;99995.88;;;15.40;100.00
62418;BME280;48456;54.242;10.280;2023-07-24T02:15:15;99996.56;;;15.45;100.00
62418;BME280;48456;54.242;10.280;2023-07-24T02:17:42;99999.94;;;15.51;100.00
62418;BME280;48456;54.242;10.280;2023-07-24T02:20:08;99987.31;;;15.56;100.00
62418;BME280;48456;54.242;10.280;2023-07-24T02:22:35;99993.38;;;15.59;100.00
62418;BME280;48456;54.242;10.280;2023-07-24T02:25:01;99994.94;;;15.65;100.00
62418;BME280;48456;54.242;10.280;2023-07-24T02:27:31;99977.16;;;15.66;100.00
62418;BME280;48456;54.242;10.280;2023-07-24T02:30:00;99981.56;;;15.67;100.00
62418;BME280;48456;54.242;10.280;2023-07-24T02:32:27;99979.69;;;15.69;100.00
62418;BME280;48456;54.242;10.280;2023-07-24T02:34:54;99973.44;;;15.70;100.00
62418;BME280;48456;54.242;10.280;2023-07-24T02:37:20;99975.25;;;15.69;100.00
62418;BME280;48456;54.242;10.280;2023-07-24T02:39:47;99975.13;;;15.72;100.00
62418;BME280;48456;54.242;10.280;2023-07-24T02:42:13;99977.78;;;15.72;100.00
62418;BME280;48456;54.242;10.280;2023-07-24T02:44:39;99979.63;;;15.70;100.00
62418;BME280;48456;54.242;10.280;2023-07-24T02:47:06;99977.91;;;15.69;100.00
62418;BME280;48456;54.242;10.280;2023-07-24T02:49:32;99976.22;;;15.67;100.00
62418;BME280;48456;54.242;10.280;2023-07-24T02:51:59;99975.34;;;15.66;100.00
62418;BME280;48456;54.242;10.280;2023-07-24T02:54:25;99977.06;;;15.67;100.00
62418;BME280;48456;54.242;10.280;2023-07-24T02:56:52;99981.44;;;15.70;100.00
62418;BME280;48456;54.242;10.280;2023-07-24T02:59:19;99983.91;;;15.75;100.00
62418;BME280;48456;54.242;10.280;2023-07-24T03:01:45;99983.75;;;15.79;100.00
62418;BME280;48456;54.242;10.280;2023-07-24T03:04:12;99989.03;;;15.81;100.00
62418;BME280;48456;54.242;10.280;2023-07-24T03:06:39;99988.94;;;15.82;100.00
62418;BME280;48456;54.242;10.280;2023-07-24T03:09:05;99979.09;;;15.84;100.00
62418;BME280;48456;54.242;10.280;2023-07-24T03:11:32;99979.03;;;15.86;100.00
62418;BME280;48456;54.242;10.280;2023-07-24T03:13:58;99983.50;;;15.85;100.00
62418;BME280;48456;54.242;10.280;2023-07-24T03:16:24;99980.78;;;15.87;100.00
62418;BME280;48456;54.242;10.280;2023-07-24T03:18:51;99985.09;;;15.90;100.00
62418;BME280;48456;54.242;10.280;2023-07-24T03:21:18;99976.16;;;15.91;100.00
62418;BME280;48456;54.242;10.280;2023-07-24T03:23:45;99975.25;;;15.92;100.00
62418;BME280;48456;54.242;10.280;2023-07-24T03:26:11;99970.84;;;15.91;100.00
62418;BME280;48456;54.242;10.280;2023-07-24T03:28:37;99973.44;;;15.92;100.00
62418;BME280;48456;54.242;10.280;2023-07-24T03:31:04;99976.06;;;15.94;100.00
62418;BME280;48456;54.242;10.280;2023-07-24T03:33:32;99972.53;;;15.93;100.00
62418;BME280;48456;54.242;10.280;2023-07-24T03:35:58;99970.78;;;15.92;100.00
62418;BME280;48456;54.242;10.280;2023-07-24T03:38:25;99972.47;;;15.95;100.00
62418;BME280;48456;54.242;10.280;2023-07-24T03:40:51;99970.69;;;15.95;100.00
62418;BME280;48456;54.242;10.280;2023-07-24T03:43:17;99974.31;;;15.94;100.00
62418;BME280;48456;54.242;10.280;2023-07-24T03:45:44;99967.16;;;15.95;100.00
62418;BME280;48456;54.242;10.280;2023-07-24T03:48:11;99961.88;;;15.93;100.00
62418;BME280;48456;54.242;10.280;2023-07-24T03:50:37;99964.53;;;15.93;100.00
62418;BME280;48456;54.242;10.280;2023-07-24T03:53:03;99964.53;;;15.93;100.00
62418;BME280;48456;54.242;10.280;2023-07-24T03:55:30;99957.44;;;15.92;100.00
62418;BME280;48456;54.242;10.280;2023-07-24T03:57:56;99963.63;;;15.94;100.00
62418;BME280;48456;54.242;10.280;2023-07-24T04:00:23;99957.38;;;15.95;100.00
62418;BME280;48456;54.242;10.280;2023-07-24T04:02:49;99961.75;;;15.96;100.00
62418;BME280;48456;54.242;10.280;2023-07-24T04:05:16;99959.97;;;15.97;100.00
62418;BME280;48456;54.242;10.280;2023-07-24T04:07:42;99965.31;;;15.97;100.00
62418;BME280;48456;54.242;10.280;2023-07-24T04:10:09;99961.69;;;15.98;100.00
62418;BME280;48456;54.242;10.280;2023-07-24T04:12:35;99970.53;;;16.00;100.00
62418;BME280;48456;54.242;10.280;2023-07-24T04:15:02;99966.03;;;16.01;100.00
62418;BME280;48456;54.242;10.280;2023-07-24T04:17:28;99958.19;;;15.97;100.00
62418;BME280;48456;54.242;10.280;2023-07-24T04:19:54;99958.03;;;16.01;100.00
62418;BME280;48456;54.242;10.280;2023-07-24T04:22:21;99972.25;;;16.01;100.00
62418;BME280;48456;54.242;10.280;2023-07-24T04:24:47;99975.03;;;15.98;100.00
62418;BME280;48456;54.242;10.280;2023-07-24T04:27:14;99975.09;;;15.96;100.00
62418;BME280;48456;54.242;10.280;2023-07-24T04:29:41;99972.44;;;15.96;100.00
62418;BME280;48456;54.242;10.280;2023-07-24T04:32:07;99964.44;;;15.96;100.00
62418;BME280;48456;54.242;10.280;2023-07-24T04:34:33;99961.75;;;15.96;100.00
62418;BME280;48456;54.242;10.280;2023-07-24T04:37:00;99966.91;;;16.01;100.00
62418;BME280;48456;54.242;10.280;2023-07-24T04:39:26;99973.97;;;16.02;100.00
62418;BME280;48456;54.242;10.280;2023-07-24T04:41:53;99966.81;;;16.04;100.00
62418;BME280;48456;54.242;10.280;2023-07-24T04:44:19;99975.66;;;16.05;100.00
62418;BME280;48456;54.242;10.280;2023-07-24T04:46:45;99973.00;;;16.05;100.00
62418;BME280;48456;54.242;10.280;2023-07-24T04:49:12;99969.53;;;16.03;100.00
62418;BME280;48456;54.242;10.280;2023-07-24T04:51:38;99972.03;;;16.06;100.00
62418;BME280;48456;54.242;10.280;2023-07-24T04:54:05;99966.84;;;16.03;100.00
62418;BME280;48456;54.242;10.280;2023-07-24T04:56:31;99966.84;;;16.03;100.00
62418;BME280;48456;54.242;10.280;2023-07-24T04:58:58;99961.53;;;16.03;100.00
62418;BME280;48456;54.242;10.280;2023-07-24T05:01:24;99963.44;;;15.99;100.00
62418;BME280;48456;54.242;10.280;2023-07-24T05:03:51;99961.69;;;15.98;100.00
62418;BME280;48456;54.242;10.280;2023-07-24T05:06:17;99964.44;;;15.96;100.00
62418;BME280;48456;54.242;10.280;2023-07-24T05:08:43;99966.84;;;16.03;100.00
62418;BME280;48456;54.242;10.280;2023-07-24T05:11:10;99963.25;;;16.04;100.00
62418;BME280;48456;54.242;10.280;2023-07-24T05:13:36;99964.31;;;16.00;100.00
62418;BME280;48456;54.242;10.280;2023-07-24T05:16:03;99963.53;;;15.97;100.00
62418;BME280;48456;54.242;10.280;2023-07-24T05:18:29;99956.47;;;15.95;100.00
62418;BME280;48456;54.242;10.280;2023-07-24T05:20:56;99954.69;;;15.95;100.00
62418;BME280;48456;54.242;10.280;2023-07-24T05:23:22;99962.69;;;15.95;100.00
62418;BME280;48456;54.242;10.280;2023-07-24T05:25:56;99954.69;;;15.95;100.00
62418;BME280;48456;54.242;10.280;2023-07-24T05:28:22;99960.03;;;15.95;100.00
62418;BME280;48456;54.242;10.280;2023-07-24T05:30:49;99960.69;;;16.01;100.00
62418;BME280;48456;54.242;10.280;2023-07-24T05:33:17;99955.38;;;16.01;100.00
62418;BME280;48456;54.242;10.280;2023-07-24T05:35:43;99963.19;;;16.05;100.00
62418;BME280;48456;54.242;10.280;2023-07-24T05:38:10;99952.47;;;16.07;100.00
62418;BME280;48456;54.242;10.280;2023-07-24T05:40:36;99949.84;;;16.05;100.00
62418;BME280;48456;54.242;10.280;2023-07-24T05:43:03;99951.53;;;16.08;100.00
62418;BME280;48456;54.242;10.280;2023-07-24T05:45:30;99946.94;;;16.11;100.00
62418;BME280;48456;54.242;10.280;2023-07-24T05:47:56;99952.41;;;16.08;100.00
62418;BME280;48456;54.242;10.280;2023-07-24T05:50:22;99943.34;;;16.13;100.00
62418;BME280;48456;54.242;10.280;2023-07-24T05:52:49;99946.75;;;16.16;100.00
62418;BME280;48456;54.242;10.280;2023-07-24T05:55:15;99943.41;;;16.11;100.00
62418;BME280;48456;54.242;10.280;2023-07-24T05:57:42;99929.78;;;16.17;100.00
62418;BME280;48456;54.242;10.280;2023-07-24T06:00:08;99926.94;;;16.22;100.00
62418;BME280;48456;54.242;10.280;2023-07-24T06:02:35;99926.22;;;16.39;100.00
62418;BME280;48456;54.242;10.280;2023-07-24T06:05:01;99928.31;;;16.53;100.00
62418;BME280;48456;54.242;10.280;2023-07-24T06:07:28;99927.09;;;16.60;100.00
62418;BME280;48456;54.242;10.280;2023-07-24T06:09:54;99918.97;;;16.63;100.00
62418;BME280;48456;54.242;10.280;2023-07-24T06:12:20;99909.78;;;16.69;100.00
62418;BME280;48456;54.242;10.280;2023-07-24T06:14:47;99921.22;;;16.73;100.00
62418;BME280;48456;54.242;10.280;2023-07-24T06:17:13;99917.72;;;16.92;100.00
62418;BME280;48456;54.242;10.280;2023-07-24T06:19:40;99916.47;;;17.00;100.00
62418;BME280;48456;54.242;10.280;2023-07-24T06:22:07;99918.19;;;17.01;100.00
62418;BME280;48456;54.242;10.280;2023-07-24T06:24:33;99910.84;;;17.07;100.00
62418;BME280;48456;54.242;10.280;2023-07-24T06:27:00;99912.69;;;17.06;100.00
62418;BME280;48456;54.242;10.280;2023-07-24T06:29:26;99908.19;;;17.07;100.00
62418;BME280;48456;54.242;10.280;2023-07-24T06:31:53;99905.50;;;17.07;100.00
62418;BME280;48456;54.242;10.280;2023-07-24T06:34:19;99899.03;;;16.92;100.00
62418;BME280;48456;54.242;10.280;2023-07-24T06:36:46;99914.78;;;16.98;100.00
62418;BME280;48456;54.242;10.280;2023-07-24T06:39:12;99920.03;;;16.99;100.00
62418;BME280;48456;54.242;10.280;2023-07-24T06:41:39;99915.56;;;17.00;100.00
62418;BME280;48456;54.242;10.280;2023-07-24T06:44:05;99919.91;;;17.02;100.00
62418;BME280;48456;54.242;10.280;2023-07-24T06:46:31;99915.13;;;17.11;100.00
62418;BME280;48456;54.242;10.280;2023-07-24T06:48:58;99921.41;;;17.29;100.00
62418;BME280;48456;54.242;10.280;2023-07-24T06:51:24;99913.69;;;17.42;100.00
62418;BME280;48456;54.242;10.280;2023-07-24T06:53:51;99902.72;;;17.48;100.00
62418;BME280;48456;54.242;10.280;2023-07-24T06:56:17;99911.75;;;17.46;100.00
62418;BME280;48456;54.242;10.280;2023-07-24T06:58:43;99914.34;;;17.66;100.00
62418;BME280;48456;54.242;10.280;2023-07-24T07:01:10;99912.28;;;17.72;100.00
62418;BME280;48456;54.242;10.280;2023-07-24T07:03:36;99910.88;;;17.82;100.00
62418;BME280;48456;54.242;10.280;2023-07-24T07:06:03;99903.66;;;17.84;100.00
62418;BME280;48456;54.242;10.280;2023-07-24T07:08:29;99921.59;;;17.82;100.00
62418;BME280;48456;54.242;10.280;2023-07-24T07:10:56;99909.09;;;17.83;100.00
62418;BME280;48456;54.242;10.280;2023-07-24T07:13:23;99898.84;;;17.73;100.00
62418;BME280;48456;54.242;10.280;2023-07-24T07:15:50;99899.38;;;17.62;100.00
62418;BME280;48456;54.242;10.280;2023-07-24T07:18:16;99905.25;;;17.51;100.00
62418;BME280;48456;54.242;10.280;2023-07-24T07:20:47;99911.31;;;17.36;100.00
62418;BME280;48456;54.242;10.280;2023-07-24T07:23:13;99913.91;;;17.37;100.00
62418;BME280;48456;54.242;10.280;2023-07-24T07:25:40;99915.38;;;17.25;100.00
62418;BME280;48456;54.242;10.280;2023-07-24T07:28:07;99922.78;;;17.19;100.00
62418;BME280;48456;54.242;10.280;2023-07-24T07:30:33;99921.53;;;17.07;100.00
62418;BME280;48456;54.242;10.280;2023-07-24T07:33:00;99915.78;;;16.95;100.00
62418;BME280;48456;54.242;10.280;2023-07-24T07:35:26;99923.53;;;17.01;100.00
62418;BME280;48456;54.242;10.280;2023-07-24T07:37:53;99920.97;;;16.98;100.00
62418;BME280;48456;54.242;10.280;2023-07-24T07:40:19;99918.31;;;16.98;100.00
62418;BME280;48456;54.242;10.280;2023-07-24T07:42:45;99925.25;;;17.02;100.00
62418;BME280;48456;54.242;10.280;2023-07-24T07:45:12;99933.34;;;17.01;100.00
62418;BME280;48456;54.242;10.280;2023-07-24T07:47:38;99929.66;;;17.04;100.00
62418;BME280;48456;54.242;10.280;2023-07-24T07:50:05;99928.13;;;17.19;100.00
62418;BME280;48456;54.242;10.280;2023-07-24T07:52:31;99928.03;;;17.20;100.00
62418;BME280;48456;54.242;10.280;2023-07-24T07:54:58;99922.38;;;17.28;100.00
62418;BME280;48456;54.242;10.280;2023-07-24T07:57:25;99927.41;;;17.34;100.00
62418;BME280;48456;54.242;10.280;2023-07-24T07:59:52;99926.75;;;17.29;100.00
62418;BME280;48456;54.242;10.280;2023-07-24T08:02:18;99928.28;;;17.35;100.00
62418;BME280;48456;54.242;10.280;2023-07-24T08:04:45;99928.22;;;17.17;100.00
62418;BME280;48456;54.242;10.280;2023-07-24T08:07:11;99926.19;;;17.22;100.00
62418;BME280;48456;54.242;10.280;2023-07-24T08:09:37;99931.72;;;17.18;100.00
62418;BME280;48456;54.242;10.280;2023-07-24T08:12:04;99924.16;;;17.08;100.00
62418;BME280;48456;54.242;10.280;2023-07-24T08:14:34;99927.13;;;17.00;100.00
62418;BME280;48456;54.242;10.280;2023-07-24T08:17:00;99932.31;;;17.04;100.00
62418;BME280;48456;54.242;10.280;2023-07-24T08:19:30;99932.41;;;17.02;100.00
62418;BME280;48456;54.242;10.280;2023-07-24T08:21:56;99931.28;;;17.08;100.00
62418;BME280;48456;54.242;10.280;2023-07-24T08:24:22;99932.09;;;17.10;100.00
62418;BME280;48456;54.242;10.280;2023-07-24T08:26:49;99938.91;;;17.17;100.00
62418;BME280;48456;54.242;10.280;2023-07-24T08:29:15;99936.63;;;17.08;100.00
62418;BME280;48456;54.242;10.280;2023-07-24T08:31:42;99943.00;;;17.04;100.00
62418;BME280;48456;54.242;10.280;2023-07-24T08:34:08;99942.16;;;17.03;100.00
62418;BME280;48456;54.242;10.280;2023-07-24T08:36:35;99939.81;;;16.95;100.00
62418;BME280;48456;54.242;10.280;2023-07-24T08:39:03;99935.47;;;16.93;100.00
62418;BME280;48456;54.242;10.280;2023-07-24T08:41:30;99927.47;;;16.93;100.00
62418;BME280;48456;54.242;10.280;2023-07-24T08:43:58;99933.69;;;16.93;100.00
62418;BME280;48456;54.242;10.280;2023-07-24T08:46:25;99931.38;;;16.85;100.00
62418;BME280;48456;54.242;10.280;2023-07-24T08:48:53;99932.75;;;16.94;100.00
62418;BME280;48456;54.242;10.280;2023-07-24T08:51:20;99927.63;;;16.89;100.00
62418;BME280;48456;54.242;10.280;2023-07-24T08:53:48;99926.63;;;16.92;100.00
62418;BME280;48456;54.242;10.280;2023-07-24T08:56:15;99929.06;;;16.97;100.00
62418;BME280;48456;54.242;10.280;2023-07-24T08:58:41;99919.69;;;16.88;100.00
62418;BME280;48456;54.242;10.280;2023-07-24T09:01:08;99921.53;;;16.86;100.00
62418;BME280;48456;54.242;10.280;2023-07-24T09:03:35;99920.34;;;16.93;100.00
62418;BME280;48456;54.242;10.280;2023-07-24T09:06:02;99906.69;;;16.99;100.00
62418;BME280;48456;54.242;10.280;2023-07-24T09:08:37;99912.97;;;17.19;100.00
62418;BME280;48456;54.242;10.280;2023-07-24T09:11:04;99908.63;;;17.36;100.00
62418;BME280;48456;54.242;10.280;2023-07-24T09:13:31;99904.38;;;17.32;100.00
62418;BME280;48456;54.242;10.280;2023-07-24T09:15:58;99912.25;;;17.54;100.00
62418;BME280;48456;54.242;10.280;2023-07-24T09:18:38;99912.41;;;17.88;100.00
62418;BME280;48456;54.242;10.280;2023-07-24T09:21:04;99922.28;;;18.05;100.00
62418;BME280;48456;54.242;10.280;2023-07-24T09:23:31;99917.72;;;18.07;100.00
62418;BME280;48456;54.242;10.280;2023-07-24T09:25:57;99917.38;;;18.15;100.00
62418;BME280;48456;54.242;10.280;2023-07-24T09:28:24;99910.00;;;18.01;100.00
62418;BME280;48456;54.242;10.280;2023-07-24T09:30:51;99917.06;;;18.02;100.00
62418;BME280;48456;54.242;10.280;2023-07-24T09:33:18;99909.72;;;18.42;100.00
62418;BME280;48456;54.242;10.280;2023-07-24T09:35:44;99901.31;;;18.84;100.00
62418;BME280;48456;54.242;10.280;2023-07-24T09:38:11;99897.31;;;18.93;100.00
62418;BME280;48456;54.242;10.280;2023-07-24T09:40:41;99903.88;;;19.03;100.00
62418;BME280;48456;54.242;10.280;2023-07-24T09:46:00;99898.31;;;19.08;100.00
62418;BME280;48456;54.242;10.280;2023-07-24T09:48:27;99902.47;;;19.14;100.00
62418;BME280;48456;54.242;10.280;2023-07-24T09:50:57;99898.44;;;19.05;100.00
62418;BME280;48456;54.242;10.280;2023-07-24T09:56:03;99892.13;;;19.24;100.00
62418;BME280;48456;54.242;10.280;2023-07-24T09:58:32;99888.03;;;19.16;100.00
62418;BME280;48456;54.242;10.280;2023-07-24T10:00:59;99887.09;;;19.17;100.00
62418;BME280;48456;54.242;10.280;2023-07-24T10:03:26;99887.16;;;19.32;100.00
62418;BME280;48456;54.242;10.280;2023-07-24T10:05:53;99877.97;;;19.84;100.00
62418;BME280;48456;54.242;10.280;2023-07-24T10:08:19;99875.09;;;20.20;100.00
62418;BME280;48456;54.242;10.280;2023-07-24T10:10:46;99869.16;;;20.44;100.00
62418;BME280;48456;54.242;10.280;2023-07-24T10:13:12;99872.44;;;20.49;100.00
62418;BME280;48456;54.242;10.280;2023-07-24T10:15:41;99865.03;;;20.38;100.00
62418;BME280;48456;54.242;10.280;2023-07-24T10:18:08;99871.03;;;20.12;100.00
62418;BME280;48456;54.242;10.280;2023-07-24T10:20:36;99872.16;;;20.08;100.00
62418;BME280;48456;54.242;10.280;2023-07-24T10:23:02;99876.00;;;19.88;100.00
62418;BME280;48456;54.242;10.280;2023-07-24T10:25:30;99873.16;;;19.59;100.00
62418;BME280;48456;54.242;10.280;2023-07-24T10:28:01;99867.00;;;19.57;100.00
62418;BME280;48456;54.242;10.280;2023-07-24T10:30:28;99866.06;;;19.74;100.00
62418;BME280;48456;54.242;10.280;2023-07-24T10:33:04;99866.53;;;20.13;100.00
62418;BME280;48456;54.242;10.280;2023-07-24T10:36:05;99866.13;;;20.50;100.00
62418;BME280;48456;54.242;10.280;2023-07-24T10:38:32;99854.19;;;20.99;100.00
62418;BME280;48456;54.242;10.280;2023-07-24T10:41:03;99839.53;;;21.33;100.00
62418;BME280;48456;54.242;10.280;2023-07-24T10:43:39;99843.28;;;21.85;100.00
62418;BME280;48456;54.242;10.280;2023-07-24T10:46:06;99843.72;;;22.32;100.00
62418;BME280;48456;54.242;10.280;2023-07-24T10:48:32;99841.50;;;22.65;100.00
62418;BME280;48456;54.242;10.280;2023-07-24T10:51:05;99844.81;;;22.82;100.00
62418;BME280;48456;54.242;10.280;2023-07-24T10:53:31;99837.16;;;23.02;100.00
62418;BME280;48456;54.242;10.280;2023-07-24T10:55:59;99847.31;;;22.85;100.00
62418;BME280;48456;54.242;10.280;2023-07-24T10:58:26;99850.19;;;22.43;100.00
62418;BME280;48456;54.242;10.280;2023-07-24T11:00:53;99845.34;;;22.35;100.00
62418;BME280;48456;54.242;10.280;2023-07-24T11:03:19;99847.16;;;23.00;100.00
62418;BME280;48456;54.242;10.280;2023-07-24T11:05:46;99847.38;;;24.20;100.00
62418;BME280;48456;54.242;10.280;2023-07-24T11:08:13;99843.53;;;24.59;100.00
62418;BME280;48456;54.242;10.280;2023-07-24T11:10:51;99838.22;;;23.49;100.00
62418;BME280;48456;54.242;10.280;2023-07-24T11:13:20;99845.84;;;23.56;100.00
62418;BME280;48456;54.242;10.280;2023-07-24T11:15:48;99840.03;;;24.45;100.00
62418;BME280;48456;54.242;10.280;2023-07-24T11:18:14;99831.09;;;25.25;100.00
62418;BME280;48456;54.242;10.280;2023-07-24T11:20:45;99822.78;;;26.15;100.00
62418;BME280;48456;54.242;10.280;2023-07-24T11:23:12;99826.84;;;26.42;100.00
62418;BME280;48456;54.242;10.280;2023-07-24T11:25:39;99820.66;;;25.76;100.00
62418;BME280;48456;54.242;10.280;2023-07-24T11:28:06;99817.00;;;24.98;100.00
62418;BME280;48456;54.242;10.280;2023-07-24T11:30:33;99804.06;;;24.45;100.00
62418;BME280;48456;54.242;10.280;2023-07-24T11:33:00;99802.78;;;23.79;100.00
62418;BME280;48456;54.242;10.280;2023-07-24T11:35:28;99803.94;;;23.99;100.00
62418;BME280;48456;54.242;10.280;2023-07-24T11:37:54;99798.88;;;24.30;100.00
62418;BME280;48456;54.242;10.280;2023-07-24T11:40:21;99799.59;;;25.24;100.00
62418;BME280;48456;54.242;10.280;2023-07-24T11:42:48;99801.38;;;26.54;100.00
62418;BME280;48456;54.242;10.280;2023-07-24T11:45:14;99801.19;;;25.71;100.00
62418;BME280;48456;54.242;10.280;2023-07-24T11:47:41;99794.47;;;24.98;100.00
62418;BME280;48456;54.242;10.280;2023-07-24T11:50:08;99796.19;;;25.10;100.00
62418;BME280;48456;54.242;10.280;2023-07-24T11:52:41;99791.78;;;25.65;100.00
62418;BME280;48456;54.242;10.280;2023-07-24T11:55:10;99783.38;;;25.68;100.00
62418;BME280;48456;54.242;10.280;2023-07-24T11:57:37;99793.31;;;26.43;100.00
62418;BME280;48456;54.242;10.280;2023-07-24T12:00:04;99791.59;;;27.14;100.00
62418;BME280;48456;54.242;10.280;2023-07-24T12:02:32;99787.66;;;27.48;100.00
62418;BME280;48456;54.242;10.280;2023-07-24T12:04:59;99786.53;;;27.90;100.00
62418;BME280;48456;54.242;10.280;2023-07-24T12:07:35;99791.41;;;26.96;100.00
62418;BME280;48456;54.242;10.280;2023-07-24T12:10:02;99790.00;;;25.75;100.00
62418;BME280;48456;54.242;10.280;2023-07-24T12:12:47;99790.31;;;25.05;100.00
62418;BME280;48456;54.242;10.280;2023-07-24T12:15:14;99783.34;;;25.35;100.00
62418;BME280;48456;54.242;10.280;2023-07-24T12:17:41;99784.41;;;26.31;100.00
62418;BME280;48456;54.242;10.280;2023-07-24T12:20:08;99770.69;;;25.90;100.00
62418;BME280;48456;54.242;10.280;2023-07-24T12:22:36;99770.09;;;25.21;100.00
62418;BME280;48456;54.242;10.280;2023-07-24T12:25:02;99767.19;;;25.12;100.00
62418;BME280;48456;54.242;10.280;2023-07-24T12:27:29;99775.66;;;25.19;100.00
62418;BME280;48456;54.242;10.280;2023-07-24T12:29:56;99762.50;;;26.23;100.00
62418;BME280;48456;54.242;10.280;2023-07-24T12:32:22;99780.94;;;25.86;100.00
62418;BME280;48456;54.242;10.280;2023-07-24T12:34:50;99771.97;;;25.09;100.00
62418;BME280;48456;54.242;10.280;2023-07-24T12:37:17;99775.91;;;24.36;100.00
62418;BME280;48456;54.242;10.280;2023-07-24T12:39:44;99774.66;;;23.81;100.00
62418;BME280;48456;54.242;10.280;2023-07-24T12:42:10;99775.75;;;23.43;100.00
62418;BME280;48456;54.242;10.280;2023-07-24T12:44:37;99773.13;;;23.17;100.00